createdAt,value
2019-04-30T00:03:25.547Z,98427.53
2019-04-30T00:07:30.440Z,98419.38
2019-04-30T00:11:36.249Z,98413.43
2019-04-30T00:15:41.270Z,98404.42
2019-04-30T00:19:50.566Z,98406.52
2019-04-30T00:23:52.743Z,98408.19
2019-04-30T00:28:00.253Z,98408.98
2019-04-30T00:32:07.878Z,98401.94
2019-04-30T00:36:12.239Z,98396.90
2019-04-30T00:40:17.124Z,98400.08
2019-04-30T00:44:25.990Z,98404.12
2019-04-30T00:48:31.221Z,98394.02
2019-04-30T00:52:37.033Z,98388.86
2019-04-30T00:56:41.803Z,98388.86
2019-04-30T01:00:59.741Z,98382.62
2019-04-30T01:05:11.613Z,98383.63
2019-04-30T01:09:16.507Z,98381.57
2019-04-30T01:13:21.403Z,98376.94
2019-04-30T01:17:26.299Z,98377.56
2019-04-30T01:21:31.451Z,98374.02
2019-04-30T01:25:36.420Z,98378.09
2019-04-30T01:29:44.374Z,98373.02
2019-04-30T01:33:48.943Z,98381.39
2019-04-30T01:37:53.918Z,98376.23
2019-04-30T01:42:02.795Z,98372.59
2019-04-30T01:46:12.145Z,98372.61
2019-04-30T01:50:12.733Z,98367.48
2019-04-30T01:54:23.846Z,98366.17
2019-04-30T01:58:25.867Z,98368.34
2019-04-30T02:02:32.397Z,98371.96
2019-04-30T02:06:39.114Z,98368.56
2019-04-30T02:10:44.052Z,98368.33
2019-04-30T02:14:49.428Z,98361.94
2019-04-30T02:18:55.896Z,98362.01
2019-04-30T02:23:00.766Z,98366.34
2019-04-30T02:27:05.660Z,98370.61
2019-04-30T02:31:10.567Z,98370.75
2019-04-30T02:35:22.993Z,98370.86
2019-04-30T02:39:30.208Z,98375.98
2019-04-30T02:43:34.963Z,98369.55
2019-04-30T02:47:40.093Z,98369.24
2019-04-30T02:51:49.727Z,98369.66
2019-04-30T02:55:53.336Z,98367.45
2019-04-30T03:00:02.796Z,98370.45
2019-04-30T03:04:09.848Z,98364.42
2019-04-30T03:08:15.117Z,98367.04
2019-04-30T03:12:20.425Z,98360.91
2019-04-30T03:16:30.405Z,98363.83
2019-04-30T03:20:46.019Z,98361.30
2019-04-30T03:24:50.907Z,98357.20
2019-04-30T03:28:55.782Z,98357.31
2019-04-30T03:33:02.741Z,98356.04
2019-04-30T03:37:09.886Z,98355.14
2019-04-30T03:41:13.838Z,98345.88
2019-04-30T03:45:20.478Z,98355.45
2019-04-30T03:49:25.516Z,98351.08
2019-04-30T03:53:30.382Z,98353.35
2019-04-30T03:57:35.269Z,98341.20
2019-04-30T04:01:41.862Z,98348.14
2019-04-30T04:05:51.337Z,98344.81
2019-04-30T04:10:00.799Z,98348.05
2019-04-30T04:14:05.685Z,98341.66
2019-04-30T04:18:10.934Z,98338.25
2019-04-30T04:22:15.829Z,98337.84
2019-04-30T04:26:20.713Z,98343.97
2019-04-30T04:30:25.586Z,98344.38
2019-04-30T04:34:30.479Z,98347.71
2019-04-30T04:38:35.388Z,98343.09
2019-04-30T04:42:40.242Z,98342.61
2019-04-30T04:46:45.130Z,98342.61
2019-04-30T04:50:50.369Z,98338.25
2019-04-30T04:54:55.389Z,98344.92
2019-04-30T04:59:00.378Z,98340.73
2019-04-30T05:03:06.894Z,98349.49
2019-04-30T05:07:11.787Z,98346.43
2019-04-30T05:11:16.673Z,98345.39
2019-04-30T05:15:21.567Z,98346.98
2019-04-30T05:19:28.489Z,98345.56
2019-04-30T05:23:33.058Z,98347.59
2019-04-30T05:27:39.238Z,98354.02
2019-04-30T05:31:44.326Z,98357.49
2019-04-30T05:35:49.625Z,98350.20
2019-04-30T05:39:54.586Z,98351.00
2019-04-30T05:43:59.488Z,98354.11
2019-04-30T05:48:05.531Z,98356.26
2019-04-30T05:52:11.668Z,98350.63
2019-04-30T05:56:16.583Z,98354.40
2019-04-30T06:00:21.819Z,98359.25
2019-04-30T06:04:26.801Z,98352.38
2019-04-30T06:08:33.329Z,98357.70
2019-04-30T06:12:59.457Z,98349.90
2019-04-30T06:17:09.723Z,98352.22
2019-04-30T06:21:14.820Z,98352.63
2019-04-30T06:25:28.353Z,98347.41
2019-04-30T06:29:26.467Z,98355.22
2019-04-30T06:33:31.428Z,98353.89
2019-04-30T06:37:39.084Z,98353.08
2019-04-30T06:41:44.606Z,98344.59
2019-04-30T06:45:51.436Z,98348.34
2019-04-30T06:49:56.284Z,98347.72
2019-04-30T06:54:01.189Z,98356.64
2019-04-30T06:58:14.777Z,98348.78
2019-04-30T07:02:12.659Z,98352.94
2019-04-30T07:06:27.492Z,98354.88
2019-04-30T07:10:25.799Z,98353.19
2019-04-30T07:14:30.767Z,98357.89
2019-04-30T07:18:35.863Z,98354.27
2019-04-30T07:22:49.367Z,98362.26
2019-04-30T07:26:48.977Z,98365.27
2019-04-30T07:31:07.559Z,98386.50
2019-04-30T07:35:00.620Z,98386.20
2019-04-30T07:39:09.980Z,98372.91
2019-04-30T07:43:14.032Z,98384.39
2019-04-30T07:47:19.619Z,98378.64
2019-04-30T07:51:25.161Z,98399.19
2019-04-30T07:55:30.578Z,98390.63
2019-04-30T07:59:35.475Z,98379.63
2019-04-30T08:03:42.433Z,98400.70
2019-04-30T08:07:48.902Z,98396.56
2019-04-30T08:11:54.059Z,98401.55
2019-04-30T08:15:59.646Z,98407.28
2019-04-30T08:20:06.068Z,98401.56
2019-04-30T08:24:10.954Z,98399.56
2019-04-30T08:28:15.857Z,98410.20
2019-04-30T08:32:20.753Z,98405.24
2019-04-30T08:36:25.652Z,98415.53
2019-04-30T08:40:30.554Z,98410.92
2019-04-30T08:44:35.431Z,98411.70
2019-04-30T08:48:50.299Z,98405.84
2019-04-30T08:52:47.009Z,98403.81
2019-04-30T08:56:51.900Z,98404.69
2019-04-30T09:00:58.637Z,98406.19
2019-04-30T09:05:09.538Z,98406.80
2019-04-30T09:09:16.373Z,98409.11
2019-04-30T09:13:21.313Z,98403.00
2019-04-30T09:17:26.181Z,98405.22
2019-04-30T09:21:31.084Z,98401.43
2019-04-30T09:25:36.811Z,98408.55
2019-04-30T09:29:44.433Z,98405.53
2019-04-30T09:33:49.261Z,98405.57
2019-04-30T09:38:01.117Z,98416.73
2019-04-30T09:42:00.861Z,98404.77
2019-04-30T09:46:19.022Z,98408.63
2019-04-30T09:50:14.926Z,98406.48
2019-04-30T09:54:20.631Z,98417.61
2019-04-30T09:58:25.906Z,98409.77
2019-04-30T10:02:30.800Z,98398.00
2019-04-30T10:06:39.582Z,98406.73
2019-04-30T10:10:43.923Z,98397.12
2019-04-30T10:14:49.438Z,98391.27
2019-04-30T10:18:54.588Z,98381.08
2019-04-30T10:22:59.661Z,98383.59
2019-04-30T10:27:07.054Z,98374.73
2019-04-30T10:31:11.529Z,98375.06
2019-04-30T10:35:18.385Z,98382.64
2019-04-30T10:39:23.435Z,98365.44
2019-04-30T10:43:29.076Z,98367.30
2019-04-30T10:47:35.909Z,98369.70
2019-04-30T10:51:40.790Z,98364.95
2019-04-30T10:55:45.687Z,98355.50
2019-04-30T10:59:51.558Z,98366.19
2019-04-30T11:03:56.451Z,98353.97
2019-04-30T11:08:01.348Z,98369.74
2019-04-30T11:12:06.746Z,98346.45
2019-04-30T11:16:14.775Z,98346.48
2019-04-30T11:20:21.702Z,98342.31
2019-04-30T11:24:36.000Z,98330.28
2019-04-30T11:28:31.677Z,98335.20
2019-04-30T11:32:36.964Z,98332.78
2019-04-30T11:36:41.922Z,98317.94
2019-04-30T11:40:48.624Z,98311.53
2019-04-30T11:44:53.644Z,98310.27
2019-04-30T11:48:58.788Z,98309.37
2019-04-30T11:53:19.741Z,98304.46
2019-04-30T11:57:10.643Z,98298.72
2019-04-30T12:01:19.403Z,98293.50
2019-04-30T12:05:24.047Z,98295.67
2019-04-30T12:09:48.463Z,98292.17
2019-04-30T12:13:53.444Z,98284.17
2019-04-30T12:17:58.333Z,98283.47
2019-04-30T12:22:03.243Z,98284.90
2019-04-30T12:26:09.167Z,98268.41
2019-04-30T12:30:15.914Z,98272.64
2019-04-30T12:34:20.812Z,98278.70
2019-04-30T12:38:25.698Z,98272.11
2019-04-30T12:42:30.598Z,98268.52
2019-04-30T12:46:35.492Z,98273.53
2019-04-30T12:50:45.052Z,98264.36
2019-04-30T12:54:54.566Z,98268.87
2019-04-30T12:58:59.453Z,98258.08
2019-04-30T13:03:04.354Z,98256.00
2019-04-30T13:07:10.499Z,98246.17
2019-04-30T13:11:16.473Z,98245.97
2019-04-30T13:15:21.703Z,98251.47
2019-04-30T13:19:26.589Z,98242.48
2019-04-30T13:23:31.487Z,98237.08
2019-04-30T13:27:38.023Z,98228.38
2019-04-30T13:31:42.922Z,98222.01
2019-04-30T13:35:48.866Z,98228.46
2019-04-30T13:39:55.538Z,98216.55
2019-04-30T13:44:01.802Z,98221.19
2019-04-30T13:48:08.806Z,98233.84
2019-04-30T13:52:13.313Z,98208.77
2019-04-30T13:56:20.120Z,98197.64
2019-04-30T14:00:26.511Z,98199.56
2019-04-30T14:04:38.871Z,98191.40
2019-04-30T14:08:45.674Z,98202.39
2019-04-30T14:12:52.275Z,98192.36
2019-04-30T14:16:58.699Z,98212.59
2019-04-30T14:21:03.770Z,98190.09
2019-04-30T14:25:08.890Z,98191.47
2019-04-30T14:29:13.856Z,98181.81
2019-04-30T14:33:25.936Z,98178.94
2019-04-30T14:37:25.420Z,98187.11
2019-04-30T14:41:32.508Z,98182.02
2019-04-30T14:45:59.402Z,98178.81
2019-04-30T14:50:06.659Z,98185.06
2019-04-30T14:54:16.222Z,98174.17
2019-04-30T14:58:22.755Z,98168.34
2019-04-30T15:02:29.682Z,98179.09
2019-04-30T15:06:34.705Z,98176.83
2019-04-30T15:10:39.656Z,98174.34
2019-04-30T15:14:44.555Z,98174.80
2019-04-30T15:18:49.451Z,98177.13
2019-04-30T15:23:09.273Z,98178.23
2019-04-30T15:27:14.170Z,98169.59
2019-04-30T15:31:19.057Z,98161.57
2019-04-30T15:35:23.950Z,98167.83
2019-04-30T15:39:36.200Z,98168.12
2019-04-30T15:43:41.091Z,98167.08
2019-04-30T15:47:45.996Z,98167.09
2019-04-30T15:51:50.972Z,98164.02
2019-04-30T15:55:55.856Z,98162.89
2019-04-30T16:00:00.755Z,98160.21
2019-04-30T16:04:10.073Z,98167.77
2019-04-30T16:08:18.993Z,98161.22
2019-04-30T16:12:41.729Z,98151.55
2019-04-30T16:16:48.321Z,98149.09
2019-04-30T16:20:53.214Z,98153.23
2019-04-30T16:25:00.431Z,98150.75
2019-04-30T16:29:04.785Z,98148.83
2019-04-30T16:33:09.682Z,98146.97
2019-04-30T16:37:14.568Z,98151.33
2019-04-30T16:41:31.027Z,98145.65
2019-04-30T16:45:26.070Z,98145.56
2019-04-30T16:49:30.960Z,98142.83
2019-04-30T16:53:35.855Z,98146.55
2019-04-30T16:57:41.222Z,98148.63
2019-04-30T17:01:57.535Z,98148.60
2019-04-30T17:06:11.909Z,98151.92
2019-04-30T17:10:30.692Z,98155.53
2019-04-30T17:14:38.871Z,98150.41
2019-04-30T17:18:43.793Z,98151.84
2019-04-30T17:22:49.651Z,98153.30
2019-04-30T17:26:54.842Z,98154.73
2019-04-30T17:30:59.736Z,98145.66
2019-04-30T17:35:06.365Z,98147.44
2019-04-30T17:39:12.904Z,98143.20
2019-04-30T17:43:17.799Z,98155.26
2019-04-30T17:47:22.703Z,98151.88
2019-04-30T17:51:27.664Z,98150.17
2019-04-30T17:55:32.554Z,98157.13
2019-04-30T17:59:37.452Z,98156.35
2019-04-30T18:03:42.413Z,98145.20
2019-04-30T18:07:49.632Z,98150.58
2019-04-30T18:11:53.910Z,98158.16
2019-04-30T18:16:00.449Z,98158.16
2019-04-30T18:20:11.113Z,98153.73
2019-04-30T18:24:20.582Z,98150.70
2019-04-30T18:28:26.243Z,98150.70
2019-04-30T18:32:31.143Z,98168.48
2019-04-30T18:36:36.030Z,98172.52
2019-04-30T18:40:41.000Z,98172.52
2019-04-30T18:44:45.957Z,98176.41
2019-04-30T18:48:52.774Z,98176.41
2019-04-30T18:52:59.105Z,98181.14
2019-04-30T18:57:04.217Z,98164.05
2019-04-30T19:01:09.679Z,98155.52
2019-04-30T19:05:16.208Z,98191.81
2019-04-30T19:09:23.890Z,98200.67
2019-04-30T19:13:46.603Z,98204.83
2019-04-30T19:17:55.840Z,98206.02
2019-04-30T19:22:00.730Z,98208.09
2019-04-30T19:26:05.618Z,98214.01
2019-04-30T19:30:11.057Z,98215.08
2019-04-30T19:34:15.956Z,98222.10
2019-04-30T19:38:20.851Z,98223.11
2019-04-30T19:42:25.748Z,98225.39
2019-04-30T19:46:30.640Z,98226.60
2019-04-30T19:50:35.536Z,98225.24
2019-04-30T19:54:40.437Z,98230.55
2019-04-30T19:58:55.830Z,98238.58
2019-04-30T20:02:51.933Z,98235.88
2019-04-30T20:06:56.815Z,98237.09
2019-04-30T20:11:01.710Z,98226.07
2019-04-30T20:15:17.203Z,98230.73
2019-04-30T20:19:14.232Z,98233.48
2019-04-30T20:23:19.135Z,98236.48
2019-04-30T20:27:24.018Z,98241.04
2019-04-30T20:31:28.919Z,98240.36
2019-04-30T20:35:33.808Z,98235.88
2019-04-30T20:39:40.344Z,98241.67
2019-04-30T20:43:45.243Z,98239.73
2019-04-30T20:47:50.140Z,98242.23
2019-04-30T20:51:56.102Z,98241.09
2019-04-30T20:56:01.192Z,98234.95
2019-04-30T21:00:07.126Z,98242.69
2019-04-30T21:04:13.621Z,98240.31
2019-04-30T21:08:18.506Z,98231.76
2019-04-30T21:12:23.399Z,98229.88
2019-04-30T21:16:28.362Z,98232.02
2019-04-30T21:20:33.261Z,98231.27
2019-04-30T21:24:38.158Z,98232.54
2019-04-30T21:28:43.050Z,98228.94
2019-04-30T21:32:55.574Z,98228.59
2019-04-30T21:37:00.464Z,98227.19
2019-04-30T21:41:05.357Z,98234.03
2019-04-30T21:45:10.313Z,98224.66
2019-04-30T21:49:15.202Z,98233.72
2019-04-30T21:53:20.083Z,98230.81
2019-04-30T21:57:24.970Z,98230.55
2019-04-30T22:01:29.932Z,98227.62
2019-04-30T22:05:34.897Z,98224.57
2019-04-30T22:09:39.780Z,98223.87
2019-04-30T22:13:44.659Z,98226.39
2019-04-30T22:17:49.550Z,98229.89
2019-04-30T22:21:54.438Z,98220.34
2019-04-30T22:25:59.320Z,98226.49
2019-04-30T22:30:07.206Z,98219.89
2019-04-30T22:34:12.079Z,98220.42
2019-04-30T22:38:24.351Z,98221.34
2019-04-30T22:42:32.090Z,98225.16
2019-04-30T22:46:36.983Z,98222.20
2019-04-30T22:50:41.940Z,98218.22
2019-04-30T22:54:46.823Z,98220.48
2019-04-30T22:58:51.706Z,98225.98
2019-04-30T23:02:58.252Z,98215.86
2019-04-30T23:07:03.133Z,98214.45
2019-04-30T23:11:08.090Z,98214.62
2019-04-30T23:15:14.509Z,98216.45
2019-04-30T23:19:19.398Z,98211.36
2019-04-30T23:23:24.291Z,98209.64
2019-04-30T23:27:29.171Z,98200.16
2019-04-30T23:31:34.062Z,98196.17
2019-04-30T23:35:38.936Z,98193.81
2019-04-30T23:39:43.835Z,98188.30
2019-04-30T23:43:48.720Z,98187.18
2019-04-30T23:47:53.610Z,98181.76
2019-04-30T23:51:58.502Z,98177.70
2019-04-30T23:56:03.383Z,98178.91
